Latest Weather Observations for Gladstone Airport

IDQ60801

Issued at 5:35 pm EST Friday 1 August 2014 (issued every 30 minutes, with the page automatically refreshed every 10 minutes)

About weather observations | Map of weather stations | Latest weather observations for QLD | Other Formats
Station Details ID: 039326 Name: GLADSTONE AIRPORT Lat: -23.87 Lon: 151.22 Height: 16.6 m
Data from the previous 72 hours. | See also: Recent months at Gladstone Airport
Date/Time
EST
Temp
°C
App
Temp
°C
Dew
Point
Rel
Hum
%
Delta-T
°C
Wind Press
QNH
hPa
Press
MSL
hPa
Rain
since 9 am
mm
Dir
 
Spd
km/h
Gust
km/h
Spd
kts
Gust
kts
01/05:30pm 22.1 21.4 16.4 70 3.5 N 15 26 8 14 1015.0 - 0.0
01/05:00pm 23.0 21.9 16.3 66 4.1 N 17 22 9 12 1014.6 - 0.0
01/04:30pm 23.9 22.4 16.7 64 4.4 NNE 20 28 11 15 1014.2 - 0.0
01/04:00pm 25.5 23.2 13.0 46 7.3 N 17 22 9 12 1014.1 - 0.0
01/03:30pm 26.0 23.4 13.2 45 7.5 N 19 24 10 13 1014.1 - 0.0
01/03:00pm 25.9 23.2 13.4 46 7.3 N 20 30 11 16 1014.2 1014.2 0.0
01/02:30pm 25.4 23.8 13.9 49 6.8 N 15 20 8 11 1014.6 - 0.0
01/02:00pm 24.5 22.2 13.1 49 6.6 NNW 17 22 9 12 1015.0 - 0.0
01/01:30pm 26.0 23.9 13.5 46 7.3 N 17 22 9 12 1015.2 - 0.0
01/01:00pm 25.5 23.4 13.7 48 6.9 N 17 20 9 11 1015.6 - 0.0
01/12:30pm 25.3 23.4 14.1 50 6.6 N 17 26 9 14 1016.2 - 0.0
01/12:00pm 25.3 23.1 14.4 50 6.5 N 19 26 10 14 1016.9 1016.9 0.0
01/11:30am 24.6 23.2 14.4 53 6.0 N 15 20 8 11 1017.4 - 0.0
01/11:00am 24.6 23.6 15.5 57 5.5 NNW 15 20 8 11 1017.9 - 0.0
01/10:30am 23.7 22.0 15.7 61 4.8 NNW 19 22 10 12 1018.3 - 0.0
01/10:00am 22.6 21.2 16.6 69 3.7 N 19 22 10 12 1018.6 - 0.0
01/09:30am 22.1 22.3 16.8 72 3.2 NW 11 13 6 7 1018.8 - 0.0
01/09:00am 20.7 22.2 16.7 78 2.4 S 4 7 2 4 1018.8 1018.8 0.0
01/08:30am 18.5 19.2 15.7 84 1.7 SW 6 9 3 5 1018.8 - 0.0
01/08:00am 17.5 18.0 15.5 88 1.2 SW 7 11 4 6 1018.4 - 0.0
01/07:30am 16.9 17.5 15.2 90 1.0 SSW 6 9 3 5 1018.3 - 0.0
01/07:00am 16.4 16.3 14.9 91 0.9 SSW 9 11 5 6 1018.0 - 0.0
01/06:30am 16.3 16.2 15.0 92 0.8 SSW 9 11 5 6 1017.9 - 0.0
01/06:00am 16.2 16.1 14.9 92 0.7 SW 9 13 5 7 1017.8 1017.8 0.0
01/05:30am 16.2 16.1 14.9 92 0.7 SW 9 15 5 8 1017.7 - 0.0
01/05:00am 16.4 15.9 14.9 91 0.9 SW 11 15 6 8 1017.4 - 0.0
01/04:30am 16.4 17.6 14.9 91 0.9 S 2 6 1 3 1017.3 - 0.0
01/04:18am 16.2 16.6 14.7 91 0.9 S 6 7 3 4 1017.2 - 0.0
01/04:00am 16.4 16.3 14.9 91 0.9 SW 9 11 5 6 1017.2 - 0.0
01/03:49am 16.6 16.9 15.1 91 0.9 SSW 7 9 4 5 1017.3 - 0.0
01/03:30am 16.7 16.7 15.2 91 0.9 SSW 9 15 5 8 1017.4 - 0.0
01/03:00am 16.9 17.9 15.4 91 0.9 SSW 4 6 2 3 1017.5 1017.5 0.0
01/02:30am 16.9 17.4 15.6 92 0.8 SW 7 13 4 7 1017.8 - 0.0
01/02:00am 16.8 17.9 15.5 92 0.8 S 4 7 2 4 1018.0 - 0.0
01/01:30am 16.6 17.2 15.3 92 0.8 SSW 6 7 3 4 1018.2 - 0.0
01/01:00am 16.7 17.2 15.1 90 0.9 SSW 6 7 3 4 1018.2 - 0.0
01/12:30am 17.0 18.7 15.3 90 1.0 CALM 0 0 0 0 1018.4 - 0.0
01/12:00am 17.0 17.4 15.3 90 1.0 SSW 7 9 4 5 1018.6 1018.6 0.0
 
Date/Time
EST
Temp
°C
App
Temp
°C
Dew
Point
Rel
Hum
%
Delta-T
°C
Wind Press
QNH
hPa
Press
MSL
hPa
Rain
since 9 am
mm
Dir
 
Spd
km/h
Gust
km/h
Spd
kts
Gust
kts
31/11:30pm 17.4 18.1 16.1 92 0.8 SSW 7 9 4 5 1018.7 - 0.0
31/11:00pm 17.2 17.8 15.7 91 0.9 SSW 7 11 4 6 1018.8 - 0.0
31/10:30pm 17.5 17.9 16.2 92 0.8 SW 9 11 5 6 1019.0 - 0.0
31/10:00pm 17.3 17.9 15.8 91 0.9 SSW 7 11 4 6 1019.1 - 0.0
31/09:30pm 17.2 17.9 15.5 90 1.0 SSW 6 7 3 4 1019.1 - 0.0
31/09:00pm 17.4 18.0 15.7 90 1.0 SSW 7 9 4 5 1018.9 1018.9 0.0
31/08:30pm 17.4 17.9 15.6 89 1.1 SSW 7 7 4 4 1018.8 - 0.0
31/08:00pm 17.8 19.6 15.6 87 1.3 CALM 0 2 0 1 1018.6 - 0.0
31/07:30pm 19.0 20.1 16.6 86 1.4 N 6 7 3 4 1018.4 - 0.0
31/07:00pm 19.1 20.2 16.5 85 1.6 N 6 7 3 4 1018.1 - 0.0
31/06:30pm 19.3 20.2 16.5 84 1.7 N 7 9 4 5 1017.9 - 0.0
31/06:00pm 19.6 20.0 16.3 81 2.0 ENE 9 13 5 7 1017.8 1017.8 0.0
31/05:30pm 20.0 19.1 15.8 77 2.5 NE 15 22 8 12 1017.5 - 0.0
31/05:00pm 20.8 19.6 15.1 70 3.4 NNE 15 22 8 12 1017.5 - 0.0
31/04:30pm 21.6 19.9 14.7 65 4.1 ENE 17 22 9 12 1017.3 - 0.0
31/04:00pm 22.0 20.2 14.4 62 4.5 NE 17 24 9 13 1017.1 - 0.0
31/03:30pm 22.6 19.8 12.5 53 5.7 ENE 19 24 10 13 1017.1 - 0.0
31/03:00pm 22.6 20.3 14.2 59 4.9 ENE 19 24 10 13 1017.1 1017.1 0.0
31/02:30pm 22.5 20.8 14.6 61 4.7 ENE 17 22 9 12 1017.2 - 0.0
31/02:00pm 23.4 21.4 14.9 59 5.1 ENE 19 22 10 12 1017.6 - 0.0
31/01:30pm 23.4 21.9 15.2 60 4.9 ENE 17 22 9 12 1018.0 - 0.0
31/01:00pm 23.6 22.0 14.0 55 5.6 NNE 15 20 8 11 1018.4 - 0.0
31/12:30pm 24.1 22.7 12.1 47 6.8 ENE 11 17 6 9 1019.0 - 0.0
31/12:00pm 23.3 21.7 12.9 52 6.0 N 13 20 7 11 1019.6 1019.6 0.0
31/11:30am 23.3 22.8 13.8 55 5.5 NW 9 13 5 7 1020.3 - 0.0
31/11:00am 23.3 23.4 14.0 56 5.4 NNE 6 9 3 5 1020.6 - 0.0
31/10:30am 21.6 21.3 14.3 63 4.3 SSW 9 13 5 7 1021.3 - 0.0
31/10:00am 20.4 20.0 12.9 62 4.3 SSW 7 13 4 7 1021.5 - 0.0
31/09:30am 18.3 16.9 12.1 67 3.4 SSW 11 15 6 8 1021.7 - 0.0
31/09:00am 16.4 14.3 11.1 71 2.8 SSW 13 17 7 9 1021.9 1021.9 0.0
31/08:30am 16.4 14.3 11.1 71 2.8 SSW 13 19 7 10 1021.7 - 0.0
31/08:00am 14.3 11.9 9.9 75 2.3 SSW 13 20 7 11 1021.5 - 0.0
31/07:30am 12.7 10.1 9.2 79 1.8 SSW 13 19 7 10 1021.3 - 0.0
31/07:00am 11.7 9.0 9.1 84 1.3 SSW 13 17 7 9 1021.1 - 0.0
31/06:30am 11.4 8.7 9.0 85 1.2 SSW 13 19 7 10 1020.9 - 0.0
31/06:00am 11.5 8.9 9.2 86 1.1 SW 13 17 7 9 1020.8 1020.8 0.0
31/05:30am 11.5 8.8 9.1 85 1.2 SW 13 17 7 9 1020.3 - 0.0
31/05:00am 11.8 9.6 9.4 85 1.2 SSW 11 15 6 8 1020.2 - 0.0
31/04:30am 12.0 9.8 9.2 83 1.4 SW 11 15 6 8 1020.2 - 0.0
31/04:00am 12.3 9.8 9.7 84 1.3 SW 13 17 7 9 1020.0 - 0.0
31/03:30am 12.4 10.4 10.0 85 1.2 SW 11 15 6 8 1020.2 - 0.0
31/03:00am 12.4 10.4 10.3 87 1.1 SSW 11 15 6 8 1020.3 1020.3 0.0
31/02:30am 13.0 11.1 10.5 85 1.3 SW 11 15 6 8 1020.4 - 0.0
31/02:00am 13.1 11.3 11.0 87 1.1 SSW 11 15 6 8 1020.6 - 0.0
31/01:30am 13.4 11.7 11.1 86 1.2 SSW 11 15 6 8 1020.8 - 0.0
31/01:00am 13.6 12.1 10.6 82 1.6 SSW 9 13 5 7 1021.0 - 0.0
31/12:30am 13.7 12.8 11.2 85 1.3 SSW 7 11 4 6 1021.1 - 0.0
31/12:00am 14.1 14.5 11.4 84 1.4 CALM 0 6 0 3 1021.2 1021.2 0.0
 
Date/Time
EST
Temp
°C
App
Temp
°C
Dew
Point
Rel
Hum
%
Delta-T
°C
Wind Press
QNH
hPa
Press
MSL
hPa
Rain
since 9 am
mm
Dir
 
Spd
km/h
Gust
km/h
Spd
kts
Gust
kts
30/11:30pm 14.2 13.5 11.4 83 1.5 SSW 6 7 3 4 1021.3 - 0.0
30/11:00pm 14.5 13.6 11.3 81 1.7 SSW 7 9 4 5 1021.5 - 0.0
30/10:30pm 14.8 14.0 11.2 79 1.9 SSW 6 7 3 4 1021.5 - 0.0
30/10:00pm 15.0 14.2 11.2 78 2.0 SSW 6 7 3 4 1021.7 - 0.0
30/09:30pm 15.1 14.8 11.5 79 1.9 SSW 4 9 2 5 1021.7 - 0.0
30/09:00pm 15.5 16.0 11.5 77 2.1 CALM 0 0 0 0 1021.7 1021.7 0.0
30/08:30pm 15.9 15.0 11.5 75 2.4 S 7 7 4 4 1021.6 - 0.0
30/08:00pm 16.3 16.8 11.7 74 2.5 CALM 0 0 0 0 1021.4 - 0.0
30/07:30pm 17.4 18.1 12.1 71 2.9 CALM 0 0 0 0 1021.1 - 0.0
30/07:00pm 18.9 18.5 12.9 68 3.4 NNE 7 9 4 5 1020.8 - 0.0
30/06:30pm 19.3 18.7 12.3 64 3.9 NNE 7 9 4 5 1020.5 - 0.0
30/06:00pm 19.7 18.9 11.7 60 4.4 NE 7 11 4 6 1020.2 1020.2 0.0
30/05:30pm 20.5 18.6 10.6 53 5.4 NE 11 15 6 8 1020.0 - 0.0
30/05:00pm 21.4 18.9 9.6 47 6.3 NE 13 19 7 10 1019.8 - 0.0
30/04:30pm 22.2 19.1 9.0 43 7.0 NE 15 20 8 11 1019.8 - 0.0
30/04:00pm 22.8 18.7 8.5 40 7.6 NE 20 24 11 13 1019.6 - 0.0
30/03:30pm 23.4 19.6 7.5 36 8.3 NE 17 22 9 12 1019.5 - 0.0
30/03:00pm 24.4 20.5 7.1 33 9.0 NE 17 24 9 13 1019.6 1019.6 0.0
30/02:30pm 24.4 20.4 6.6 32 9.2 NE 17 22 9 12 1019.7 - 0.0
30/02:00pm 24.0 20.4 6.7 33 8.9 NE 15 20 8 11 1020.2 - 0.0
30/01:30pm 24.8 21.3 7.4 33 9.2 NE 15 24 8 13 1020.5 - 0.0
30/01:00pm 24.4 20.5 7.1 33 9.0 NE 17 24 9 13 1020.9 - 0.0
30/12:30pm 24.5 21.1 7.6 34 8.9 ENE 15 20 8 11 1021.5 - 0.0
30/12:00pm 23.9 21.7 7.9 36 8.4 ENE 9 17 5 9 1022.2 1022.2 0.0
30/11:30am 23.3 21.6 10.0 43 7.3 NNW 9 15 5 8 1022.9 - 0.0
30/11:00am 23.1 21.8 9.8 43 7.2 WNW 7 15 4 8 1023.2 - 0.0
30/10:30am 22.1 20.1 10.3 47 6.4 NNW 11 17 6 9 1023.6 - 0.0
30/10:00am 21.6 20.4 11.6 53 5.6 NNW 9 13 5 7 1023.8 - 0.0
30/09:30am 19.8 19.2 12.3 62 4.2 WNW 7 11 4 6 1024.1 - 0.0
30/09:00am 17.7 17.1 12.4 71 2.9 SSW 7 11 4 6 1024.2 1024.1 0.0
30/08:30am 15.2 13.2 11.4 78 2.0 SSW 13 19 7 10 1024.1 - 0.0
30/08:00am 12.9 10.1 9.9 82 1.5 SW 15 20 8 11 1024.0 - 0.0
30/07:30am 12.7 10.3 10.2 85 1.3 SW 13 19 7 10 1023.7 - 0.0
30/07:00am 11.6 9.6 10.0 90 0.8 SSW 11 17 6 9 1023.3 - 0.0
30/06:30am 11.1 8.5 9.5 90 0.8 SW 13 17 7 9 1023.0 - 0.0
30/06:00am 11.2 9.1 9.6 90 0.8 SW 11 15 6 8 1022.5 1022.5 0.0
30/05:30am 11.6 9.9 9.9 89 0.9 SSW 9 15 5 8 1022.2 - 0.0
30/05:00am 12.2 10.6 10.3 88 1.0 SW 9 15 5 8 1022.0 - 0.0
30/04:30am 12.3 10.8 10.5 89 0.9 SSW 9 13 5 7 1021.8 - 0.0
30/04:00am 12.4 11.3 10.5 88 1.0 SSW 7 9 4 5 1021.7 - 0.0
30/03:30am 12.7 10.8 10.6 87 1.1 SW 11 17 6 9 1021.7 - 0.0
30/03:00am 13.3 11.5 11.0 86 1.2 SW 11 15 6 8 1021.9 1021.9 0.0
30/02:30am 13.3 12.0 11.2 87 1.1 SSW 9 13 5 7 1021.8 - 0.0
30/02:00am 13.2 11.9 11.3 88 1.0 SSW 9 15 5 8 1021.8 - 0.0
30/01:30am 13.2 11.9 11.1 87 1.1 SSW 9 13 5 7 1021.8 - 0.0
30/01:00am 13.5 12.2 11.4 87 1.1 SSW 9 11 5 6 1021.8 - 0.0
30/12:30am 13.4 13.7 10.9 85 1.3 CALM 0 6 0 3 1022.1 - 0.0
30/12:00am 13.8 13.6 11.8 88 1.1 SSW 4 9 2 5 1022.0 1022.0 0.0
 
Date/Time
EST
Temp
°C
App
Temp
°C
Dew
Point
Rel
Hum
%
Delta-T
°C
Wind Press
QNH
hPa
Press
MSL
hPa
Rain
since 9 am
mm
Dir
 
Spd
km/h
Gust
km/h
Spd
kts
Gust
kts
29/11:30pm 13.8 14.2 11.3 85 1.3 CALM 0 0 0 0 1022.1 - 0.0
29/11:00pm 14.0 13.7 11.3 84 1.4 WSW 4 7 2 4 1022.1 - 0.0
29/10:30pm 14.2 14.6 11.4 83 1.5 CALM 0 0 0 0 1022.2 - 0.0
29/10:00pm 14.6 15.0 11.4 81 1.7 CALM 0 0 0 0 1022.3 - 0.0
29/09:30pm 15.1 15.6 11.7 80 1.8 CALM 0 0 0 0 1022.2 - 0.0
29/09:00pm 15.6 16.1 11.6 77 2.2 CALM 0 0 0 0 1022.0 1022.0 0.0
29/08:30pm 16.1 16.6 11.7 75 2.4 CALM 0 0 0 0 1022.0 - 0.0
29/08:00pm 16.9 16.7 11.8 72 2.8 NW 4 6 2 3 1021.9 - 0.0
29/07:30pm 18.5 18.2 12.7 69 3.2 N 6 7 3 4 1021.8 - 0.0
29/07:00pm 18.9 18.3 12.2 65 3.7 N 7 9 4 5 1021.4 - 0.0
29/06:30pm 19.2 17.6 11.7 62 4.1 N 11 13 6 7 1021.2 - 0.0
29/06:00pm 19.8 18.3 11.8 60 4.4 N 11 17 6 9 1020.8 1020.8 0.0

Other Formats:

Comma delimited format used in spreadsheet applications
http://www.bom.gov.au/fwo/IDQ60801/IDQ60801.94381.axf

JavaScript Object Notation format (JSON) in row-major order
http://www.bom.gov.au/fwo/IDQ60801/IDQ60801.94381.json